Nearby METAR Reports

 

PAEN - Kenai, Alaska, USA
Distance from station: ESE 2mi, 4km
Updated: Sat, 21-Sep-2019 11:53am AKDT
Overcast
Overcast
 Wind from S
Wind: S 3 mph , 6 km/h
Temperature: 52°F , 11°C
Dew Point: 48°F , 9°C
Humidity: 88%
Barometer: 29.40 inHg , 995.6 hPa
Clouds: Overcast
Visibility: 10 miles , 16 km
Cloud details: Mostly cloudy 4200 ft
Overcast 5500 ft
2019/09/21 19:53 PAEN 211953Z 18003KT 10SM BKN042 OVC055 11/09 A2940 RMK AO2 RAB1859E11 SLP959 P0000 T01060089
PASX - Soldotna, Alaska, USA
Distance from station: SE 12mi, 19km
Updated: Sat, 21-Sep-2019 11:56am AKDT
Partly cloudy
Partly cloudy
 Wind from calm
Wind: Calm
Temperature: 50°F , 10°C
Dew Point: 46°F , 8°C
Humidity: 88%
Barometer: 29.43 inHg , 996.6 hPa
Clouds: Partly cloudy
Visibility: 10 miles , 16 km
Cloud details: Few Clouds 800 ft
Partly cloudy 4800 ft
2019/09/21 19:56 PASX 211956Z AUTO 00000KT 10SM FEW008 SCT048 10/08 A2943 RMK AO2 RAB32E47 SLP975 P0000 T01000078
 
PANC - Anchorage Intl, Alaska, USA
Distance from station: NE 59mi, 96km
Updated: Sat, 21-Sep-2019 11:53am AKDT
Overcast
Overcast
 Wind from N
Wind: N 5 mph , 7 km/h
Temperature: 52°F , 11°C
Dew Point: 36°F , 2°C
Humidity: 54%
Barometer: 29.39 inHg , 995.3 hPa
Clouds: Overcast
Visibility: 10 miles , 16 km
Cloud details: Mostly cloudy 6000 ft
Mostly cloudy 8000 ft
Overcast 12000 ft
2019/09/21 19:53 PANC 211953Z 01004KT 10SM BKN060 BKN080 OVC120 11/02 A2939 RMK AO2 SLP954 T01060022
PALH - Anchorage/Lake H, Alaska, USA
Distance from station: NE 61mi, 99km
Updated: Sat, 21-Sep-2019 11:53am AKDT
Overcast
Overcast
 Wind from NNE
Wind: NNE 7 mph , 11 km/h
Temperature: 50°F , 10°C
Wind Chill: 47°F , 8°C
Dew Point: 36°F , 2°C
Humidity: 58%
Barometer: 29.40 inHg , 995.6 hPa
Clouds: Overcast
Visibility: 10 miles , 16 km
Cloud details: Overcast 6000 ft
2019/09/21 19:53 PALH 211953Z 03006KT 10SM OVC060 10/02 A2940 RMK AO2 SLP957 T01000017 $
 
PAHO - Homer, Alaska, USA
Distance from station: S 66mi, 106km
Updated: Sat, 21-Sep-2019 11:53am AKDT
Overcast
Overcast
 Wind from WSW
Wind: WSW 7 mph , 11 km/h
Temperature: 50°F , 10°C
Wind Chill: 47°F , 8°C
Dew Point: 45°F , 7°C
Humidity: 82%
Barometer: 29.43 inHg , 996.6 hPa
Clouds: Overcast
Visibility: 9 miles , 14 km
Cloud details: Overcast 4400 ft
2019/09/21 19:53 PAHO 211953Z 24006KT 9SM OVC044 10/07 A2943 RMK AO2 RAE1857B31E50 SLP965 P0000 T01000072 $
PAMR - Anchorage/Merril, Alaska, USA
Distance from station: NE 66mi, 106km
Updated: Sat, 21-Sep-2019 11:53am AKDT
Overcast
Overcast
 Wind from E
Wind: E 5 mph , 7 km/h
Temperature: 48°F , 9°C
Wind Chill: 46°F , 8°C
Dew Point: 37°F , 3°C
Humidity: 66%
Barometer: 29.39 inHg , 995.3 hPa
Clouds: Overcast
Visibility: 10 miles , 16 km
Cloud details: Few Clouds 4300 ft
Overcast 5500 ft
2019/09/21 19:53 PAMR 211953Z 10004KT 10SM FEW043 OVC055 09/03 A2939 RMK AO2 SLP954 VC TERMINATION DUST T00940028
 
PAED - Elmendorf Afb, Alaska, USA
Distance from station: NE 69mi, 110km
Updated: Sat, 21-Sep-2019 11:56am AKDT
Overcast
Overcast
 Wind from ESE
Wind: ESE 5 mph , 7 km/h
Temperature: 48°F , 9°C
Wind Chill: 46°F , 8°C
Dew Point: 39°F , 4°C
Humidity: 71%
Barometer: 29.39 inHg , 995.3 hPa
Clouds: Overcast
Visibility: 10 miles , 16 km
Cloud details: Mostly cloudy 4300 ft
Overcast 5000 ft
2019/09/21 19:56 PAED 211956Z AUTO 12004KT 10SM BKN043 OVC050 09/04 A2939 RMK AO2 SLP948 T00890041 $
PAWD - Seward, Alaska, USA
Distance from station: ESE 71mi, 115km
Updated: Sat, 21-Sep-2019 11:53am AKDT
Overcast
Overcast
 Wind from N
Wind: N 14 mph , 22 km/h, Gust: 22 mph , 35 km/h
Temperature: 54°F , 12°C
Dew Point: 43°F , 6°C
Humidity: 67%
Barometer: 29.34 inHg , 993.6 hPa
Clouds: Overcast
Visibility: 10 miles , 16 km
Cloud details: Partly cloudy 4000 ft
Mostly cloudy 5000 ft
Overcast 8500 ft
2019/09/21 19:53 PAWD 211953Z AUTO 35012G19KT 320V040 10SM SCT040 BKN050 OVC085 12/06 A2934 RMK AO2 SLP936 T01220056 TSNO
 
PASC - Deadhorse, Alaska, USA
Distance from station: ENE 670mi, 1078km
Updated: Sat, 21-Sep-2019 11:53am AKDT
Light drizzle, Fog, Overcast
Light drizzle, Fog, Overcast
 Wind from NE
Wind: NE 7 mph , 11 km/h
Temperature: 37°F , 3°C
Wind Chill: 32°F , 0°C
Dew Point: 37°F , 3°C
Humidity: 100%
Barometer: 29.43 inHg , 996.6 hPa
Summary: Light drizzle, Fog
Clouds: Overcast
Visibility: 1/2 mile , 0.8 km
Cloud details: Overcast 200 ft
2019/09/21 19:53 PASC 211953Z 05006KT 1/2SM R06/3000V4000FT -DZ FG VV002 03/03 A2943 RMK AO2 SLP968 VIS 1/4V3/4 P0000 T00330028 $
PAAD - Point Thomson, Alaska, USA
Distance from station: ENE 680mi, 1094km
Updated: Sat, 21-Sep-2019 11:55am AKDT
Mist, Overcast
Mist, Overcast
 Wind from SW
Wind: SW 6 mph , 9 km/h
Temperature: 37°F , 3°C
Wind Chill: 32°F , 0°C
Dew Point: 37°F , 3°C
Humidity: 100%
Barometer: 29.44 inHg , 997 hPa
Summary: Mist
Clouds: Overcast
Visibility: 1 mile , 2 km
Cloud details: Overcast 300 ft
2019/09/21 19:55 PAAD 211955Z AUTO 22005KT 1SM BR OVC003 03/03 A2944 RMK AO2 T00260026


kenaipeople.com website

Dans Automotive

Lower Peninsula Power Sports

Freddies RoadHouse

Alaska Weather Net